首页
METAR-TAF:

METAR-TAF

机场 :

馬里伯爾愛德華·盧希揚機場

马里博尔, 斯洛文尼亚

纬度: 46-29N, 经度: 015-41E, 海拔: 264米

当前天气观测

该预报发布于10分钟前的19:30 UTC
风速5节,风向东转东南
温度 5°C
湿度 87%
气压 1025 hPa
能见度10公里或以上
1500米以下无云,无积雨云

METAR: LJMB 181930Z 11005KT CAVOK 05/03 Q1025

时间: 20:40 (19:40 UTC)

预报

该预报发布于2小时和40分钟前的17:00 UTC
预报有效从18日的 18点(UTC)到 19日的 18点(UTC)
风速5节,风向东转东南
能见度10公里或以上
少量云层高于5000英尺
多云层高于8000英尺
几率 30% :
短暂存在
从 18日的 18点(UTC)到 19日的 07点(UTC)
多云层高于5000英尺
阴天层高于8000英尺
小雨
成为
从 18日的 20点(UTC)到 18日的 22点(UTC)
风速5节,风向
成为
从 19日的 10点(UTC)到 19日的 12点(UTC)
风速5节,风向
成为
从 19日的 16点(UTC)到 19日的 18点(UTC)
风速5节,风向

TAF: LJMB 181700Z 1818/1918 12005KT 9999 FEW050 BKN080 PROB30 TEMPO 1818/1907 -RA BKN050 OVC080 BECMG 1820/1822 36005KT BECMG 1910/1912 19005KT BECMG 1916/1918 36005KT

超过4000个机场的气象观测和天气预报(METAR&TAF报告)。

可查询的气象台以黄色和红色小点在地图上表示。

将鼠标移到小点上方,可查看气象台名称。

然后点击查看天气观测和预报。

如需切换地图:点击带黑十字的绿色按钮放大地图;点击带横线的绿色按钮缩小地图;或者点击绿色箭头查看邻近地区的地图。


METAR-TAF: